Time;durP1;ratioP1;P1;durP2;ratioP2;P2;SDS_P1;SDS_P2;PMS_P1;PMS_P2;Temp;Humidity;BMP_temperature;BMP_pressure;BME280_temperature;BME280_humidity;BME280_pressure;Samples;Min_cycle;Max_cycle;Signal;HPM_P1;HPM_P2
2023/06/23 00:01:10;;;;;;;;;;;;;;;22.67;50.68;101881.16;4131878;28;20343;-64
2023/06/23 00:03:11;;;;;;;;;;;;;;;22.68;51.10;101882.03;4130589;28;19976;-64
2023/06/23 00:05:13;;;;;;;;;;;;;;;22.67;50.65;101881.16;4130537;28;20375;-65
2023/06/23 00:07:14;;;;;;;;;;;;;;;22.66;50.89;101879.44;4131407;28;19957;-64
2023/06/23 00:09:17;;;;;;;;;;;;;;;22.66;51.02;101876.75;4130376;28;19926;-64
2023/06/23 00:11:19;;;;;;;;;;;;;;;22.65;50.92;101878.59;4131786;28;20273;-65
2023/06/23 00:13:22;;;;;;;;;;;;;;;22.65;50.92;101883.13;4129204;28;19932;-65
2023/06/23 00:15:25;;;;;;;;;;;;;;;22.65;50.76;101885.78;4131579;28;20450;-64
2023/06/23 00:17:26;;;;;;;;;;;;;;;22.64;51.08;101886.75;4131772;28;19926;-64
2023/06/23 00:19:31;;;;;;;;;;;;;;;22.64;51.05;101894.78;4131421;28;19933;-64
2023/06/23 00:21:34;;;;;;;;;;;;;;;22.62;51.11;101892.19;4131633;28;19929;-64
2023/06/23 00:23:36;;;;;;;;;;;;;;;22.61;51.10;101885.16;4130411;28;19929;-64
2023/06/23 00:25:37;;;;;;;;;;;;;;;22.62;51.14;101891.34;4131422;28;19933;-63
2023/06/23 00:27:40;;;;;;;;;;;;;;;22.62;51.04;101897.56;4131360;28;19926;-63
2023/06/23 00:29:41;;;;;;;;;;;;;;;22.61;51.16;101901.22;4130279;28;20215;-63
2023/06/23 00:31:43;;;;;;;;;;;;;;;22.60;50.78;101907.56;4131248;28;19933;-63
2023/06/23 00:33:45;;;;;;;;;;;;;;;22.60;51.07;101890.59;4130455;28;20016;-63
2023/06/23 00:35:46;;;;;;;;;;;;;;;22.59;51.08;101892.41;4131292;28;19993;-63
2023/06/23 00:37:48;;;;;;;;;;;;;;;22.59;51.18;101892.41;4131351;28;20046;-63
2023/06/23 00:39:52;;;;;;;;;;;;;;;22.59;50.74;101891.53;4131233;28;19980;-64
2023/06/23 00:41:54;;;;;;;;;;;;;;;22.58;51.13;101884.50;4131376;28;20355;-64
2023/06/23 00:43:59;;;;;;;;;;;;;;;22.58;50.90;101892.53;4129812;28;19937;-65
2023/06/23 00:46:06;;;;;;;;;;;;;;;22.58;51.03;101884.50;4131171;28;19972;-64
2023/06/23 00:48:08;;;;;;;;;;;;;;;22.57;51.07;101883.63;4130892;28;19980;-64
2023/06/23 00:50:15;;;;;;;;;;;;;;;22.57;51.16;101880.94;4131257;28;20399;-64
2023/06/23 00:52:17;;;;;;;;;;;;;;;22.56;50.87;101884.56;4130633;28;19926;-64
2023/06/23 00:54:18;;;;;;;;;;;;;;;22.56;51.25;101886.41;4130981;28;19945;-64
2023/06/23 00:56:21;;;;;;;;;;;;;;;22.55;51.20;101882.84;4131517;28;20302;-64
2023/06/23 00:58:23;;;;;;;;;;;;;;;22.55;51.13;101882.00;4130986;28;19965;-64
2023/06/23 01:00:27;;;;;;;;;;;;;;;22.54;51.20;101881.16;4131985;28;19926;-64
2023/06/23 01:02:28;;;;;;;;;;;;;;;22.54;51.23;101888.31;4133922;28;20021;-64
2023/06/23 01:04:34;;;;;;;;;;;;;;;22.53;51.28;101895.53;4133402;28;20023;-65
2023/06/23 01:06:48;;;;;;;;;;;;;;;22.53;51.23;101884.78;4134632;28;20318;-63
2023/06/23 01:09:02;;;;;;;;;;;;;;;22.53;51.12;101889.28;4134478;28;19929;-64
2023/06/23 01:11:11;;;;;;;;;;;;;;;22.52;51.31;101893.81;4134429;28;19926;-64
2023/06/23 01:13:13;;;;;;;;;;;;;;;22.52;51.25;101887.56;4133496;28;19933;-64
2023/06/23 01:15:17;;;;;;;;;;;;;;;22.51;51.39;101886.72;4134454;28;20036;-64
2023/06/23 01:17:25;;;;;;;;;;;;;;;22.51;51.35;101896.59;4134474;28;20025;-64
2023/06/23 01:19:32;;;;;;;;;;;;;;;22.49;50.89;101897.56;4134369;28;19937;-63
2023/06/23 01:21:39;;;;;;;;;;;;;;;22.49;51.05;101889.50;4134079;28;19975;-63
2023/06/23 01:24:03;;;;;;;;;;;;;;;22.50;51.30;101895.72;4133313;28;19926;-63
2023/06/23 01:26:09;;;;;;;;;;;;;;;22.48;51.11;101898.50;4134110;28;20016;-63
2023/06/23 01:28:17;;;;;;;;;;;;;;;22.48;51.32;101893.16;4134343;28;19926;-63
2023/06/23 01:30:21;;;;;;;;;;;;;;;22.47;51.17;101888.75;4134188;28;19926;-63
2023/06/23 01:32:27;;;;;;;;;;;;;;;22.48;51.31;101894.97;4133434;28;19926;-64
2023/06/23 01:34:37;;;;;;;;;;;;;;;22.47;51.39;101898.63;4133856;28;20020;-64
2023/06/23 01:36:42;;;;;;;;;;;;;;;22.46;51.06;101900.41;4133957;28;19925;-63
2023/06/23 01:38:47;;;;;;;;;;;;;;;22.46;51.19;101900.41;4133846;28;19925;-63
2023/06/23 01:40:52;;;;;;;;;;;;;;;22.47;51.39;101909.34;4133621;28;19926;-64
2023/06/23 01:42:58;;;;;;;;;;;;;;;22.46;51.10;101904.94;4133249;28;19955;-63
2023/06/23 01:45:03;;;;;;;;;;;;;;;22.45;51.20;101908.56;4133711;28;19933;-63
2023/06/23 01:47:10;;;;;;;;;;;;;;;22.45;51.08;101905.91;4133775;28;19925;-63
2023/06/23 01:49:16;;;;;;;;;;;;;;;22.45;51.41;101908.56;4133845;28;19926;-64
2023/06/23 01:51:19;;;;;;;;;;;;;;;22.44;51.37;101917.56;4133800;28;19937;-63
2023/06/23 01:53:21;;;;;;;;;;;;;;;22.44;51.30;101914.91;4132727;28;19926;-64
2023/06/23 01:55:23;;;;;;;;;;;;;;;22.42;51.44;101917.69;4133420;28;19926;-63
2023/06/23 01:57:26;;;;;;;;;;;;;;;22.43;51.53;101913.19;4133877;28;20272;-64
2023/06/23 01:59:29;;;;;;;;;;;;;;;22.43;51.12;101921.22;4133764;28;19972;-63
2023/06/23 02:01:31;;;;;;;;;;;;;;;22.42;51.23;101923.06;4133860;28;19926;-63
2023/06/23 02:03:33;;;;;;;;;;;;;;;22.41;51.41;101924.00;4132832;28;19988;-64
2023/06/23 02:05:37;;;;;;;;;;;;;;;22.41;51.21;101929.38;4133603;28;19925;-64
2023/06/23 02:07:40;;;;;;;;;;;;;;;22.41;51.48;101937.41;4133468;28;20280;-64
2023/06/23 02:09:43;;;;;;;;;;;;;;;22.40;51.42;101940.19;4133177;28;19926;-64
2023/06/23 02:11:45;;;;;;;;;;;;;;;22.40;51.29;101942.88;4132668;28;19948;-63
2023/06/23 02:13:46;;;;;;;;;;;;;;;22.39;51.45;101935.78;4132368;28;20017;-64
2023/06/23 02:15:50;;;;;;;;;;;;;;;22.39;51.14;101933.97;4133481;28;19964;-64
2023/06/23 02:17:52;;;;;;;;;;;;;;;22.38;51.34;101928.69;4133303;28;19926;-64
2023/06/23 02:19:55;;;;;;;;;;;;;;;22.38;51.18;101928.69;4133487;28;19925;-63
2023/06/23 02:21:57;;;;;;;;;;;;;;;22.38;51.21;101932.25;4133485;28;19930;-63
2023/06/23 02:24:02;;;;;;;;;;;;;;;22.37;51.14;101925.16;4131810;28;19968;-64
2023/06/23 02:26:05;;;;;;;;;;;;;;;22.37;51.12;101932.31;4133410;28;20331;-64
2023/06/23 02:28:11;;;;;;;;;;;;;;;22.37;51.11;101932.31;4133395;28;20021;-63
2023/06/23 02:30:13;;;;;;;;;;;;;;;22.36;51.25;101934.16;4133185;28;19955;-64
2023/06/23 02:32:16;;;;;;;;;;;;;;;22.37;51.18;101935.00;4133229;28;19926;-64
2023/06/23 02:34:18;;;;;;;;;;;;;;;22.35;51.16;101927.06;4132280;28;19965;-64
2023/06/23 02:36:21;;;;;;;;;;;;;;;22.34;51.22;101934.22;4133254;28;19926;-63
2023/06/23 02:38:24;;;;;;;;;;;;;;;22.34;51.23;101934.22;4132931;28;19950;-64
2023/06/23 02:40:26;;;;;;;;;;;;;;;22.34;51.18;101933.38;4133164;28;19925;-64
2023/06/23 02:42:31;;;;;;;;;;;;;;;22.33;51.40;101937.91;4132852;28;20323;-63
2023/06/23 02:44:37;;;;;;;;;;;;;;;22.33;51.18;101943.25;4132510;28;20346;-63
2023/06/23 02:46:41;;;;;;;;;;;;;;;22.33;51.23;101948.63;4133032;28;20359;-63
2023/06/23 02:48:43;;;;;;;;;;;;;;;22.33;51.20;101947.75;4132810;28;19965;-63
2023/06/23 02:50:46;;;;;;;;;;;;;;;22.32;51.46;101944.22;4133063;28;19948;-63
2023/06/23 02:52:49;;;;;;;;;;;;;;;22.32;51.25;101951.38;4131822;28;19925;-63
2023/06/23 02:54:53;;;;;;;;;;;;;;;22.32;51.12;101952.25;4115465;28;19934;-62
2023/06/23 02:56:57;;;;;;;;;;;;;;;22.31;51.22;101963.94;4132919;28;20049;-63
2023/06/23 02:59:01;;;;;;;;;;;;;;;22.31;51.16;101968.44;4133087;28;20375;-63
2023/06/23 03:01:04;;;;;;;;;;;;;;;22.31;51.25;101968.44;4132770;28;19926;-64
2023/06/23 03:03:09;;;;;;;;;;;;;;;22.30;51.58;101980.13;4131956;28;20311;-64
2023/06/23 03:05:11;;;;;;;;;;;;;;;22.29;51.30;101973.88;4132721;28;19926;-64
2023/06/23 03:07:13;;;;;;;;;;;;;;;22.29;51.26;101973.03;4132369;28;20008;-62
2023/06/23 03:09:14;;;;;;;;;;;;;;;22.29;51.27;101967.69;4132507;28;19937;-63
2023/06/23 03:11:19;;;;;;;;;;;;;;;22.28;51.19;101974.84;4132783;28;20312;-64
2023/06/23 03:13:21;;;;;;;;;;;;;;;22.28;51.31;101974.00;4131844;28;19926;-64
2023/06/23 03:15:22;;;;;;;;;;;;;;;22.28;51.33;101976.66;4131490;28;20379;-64
2023/06/23 03:17:25;;;;;;;;;;;;;;;22.27;51.69;101969.59;4132712;28;19933;-64
2023/06/23 03:19:30;;;;;;;;;;;;;;;22.27;51.20;101973.16;4132611;28;19930;-64
2023/06/23 03:21:34;;;;;;;;;;;;;;;22.26;51.25;101975.91;4132305;28;20006;-64
2023/06/23 03:23:36;;;;;;;;;;;;;;;22.26;51.44;101970.53;4131055;28;20054;-64
2023/06/23 03:25:40;;;;;;;;;;;;;;;22.25;51.35;101967.00;4132668;28;20333;-64
2023/06/23 03:27:43;;;;;;;;;;;;;;;22.26;51.35;101967.88;4132457;28;20356;-64
2023/06/23 03:29:52;;;;;;;;;;;;;;;22.25;51.33;101972.38;4132393;28;20311;-64
2023/06/23 03:31:56;;;;;;;;;;;;;;;22.24;51.38;101973.34;4132345;28;19926;-64
2023/06/23 03:33:58;;;;;;;;;;;;;;;22.25;51.51;101968.81;4131390;28;20032;-64
2023/06/23 03:36:05;;;;;;;;;;;;;;;22.25;51.35;101974.19;4132207;28;19926;-64
2023/06/23 03:38:09;;;;;;;;;;;;;;;22.24;51.27;101984.06;4131921;28;20147;-64
2023/06/23 03:40:13;;;;;;;;;;;;;;;22.24;51.26;101989.41;4132043;28;19932;-64
2023/06/23 03:42:14;;;;;;;;;;;;;;;22.23;51.14;101989.53;4132085;28;19948;-64
2023/06/23 03:44:19;;;;;;;;;;;;;;;22.22;51.29;101995.84;4131178;28;19926;-63
2023/06/23 03:46:41;;;;;;;;;;;;;;;22.20;51.55;101990.59;4132120;28;20313;-63
2023/06/23 03:48:44;;;;;;;;;;;;;;;22.22;51.38;101995.84;4131904;28;20310;-64
2023/06/23 03:50:49;;;;;;;;;;;;;;;22.20;51.32;101993.25;4131667;28;19926;-64
2023/06/23 03:52:51;;;;;;;;;;;;;;;22.20;51.36;101993.25;4131396;28;19933;-67
2023/06/23 03:54:53;;;;;;;;;;;;;;;22.20;51.33;101995.94;4130455;28;20530;-64
2023/06/23 03:56:55;;;;;;;;;;;;;;;22.20;51.19;101995.06;4132109;28;20229;-63
2023/06/23 03:58:58;;;;;;;;;;;;;;;22.19;51.35;101994.22;4132104;28;20299;-65
2023/06/23 04:01:01;;;;;;;;;;;;;;;22.19;51.33;101991.53;4131816;28;19933;-65
2023/06/23 04:03:07;;;;;;;;;;;;;;;22.18;51.43;101990.66;4131046;28;19926;-62
2023/06/23 04:05:12;;;;;;;;;;;;;;;22.18;51.20;101985.28;4131762;28;19926;-64
2023/06/23 04:07:14;;;;;;;;;;;;;;;22.18;51.13;102000.53;4131905;28;20338;-64
2023/06/23 04:09:18;;;;;;;;;;;;;;;22.17;51.57;101993.44;4131759;28;19930;-62
2023/06/23 04:11:21;;;;;;;;;;;;;;;22.17;51.46;102001.47;4131849;28;19932;-62
2023/06/23 04:13:23;;;;;;;;;;;;;;;22.16;51.13;102015.84;4131134;28;19933;-62
2023/06/23 04:15:26;;;;;;;;;;;;;;;22.16;51.43;102022.06;4131593;28;20163;-63
2023/06/23 04:17:29;;;;;;;;;;;;;;;22.15;51.32;102017.66;4131740;28;19930;-63
2023/06/23 04:19:31;;;;;;;;;;;;;;;22.15;51.41;102023.03;4131749;28;19933;-64
2023/06/23 04:21:34;;;;;;;;;;;;;;;22.16;51.14;102038.16;4131430;28;20012;-64
2023/06/23 04:23:36;;;;;;;;;;;;;;;22.15;51.15;102028.38;4130644;28;19929;-63
2023/06/23 04:25:39;;;;;;;;;;;;;;;22.15;51.10;102030.19;4131535;28;19984;-65
2023/06/23 04:27:42;;;;;;;;;;;;;;;22.15;51.21;102027.50;4130487;28;20005;-65
2023/06/23 04:29:48;;;;;;;;;;;;;;;22.15;51.10;102035.53;4131583;28;19926;-65
2023/06/23 04:31:51;;;;;;;;;;;;;;;22.14;51.15;102039.19;4131600;28;19951;-65
2023/06/23 04:33:52;;;;;;;;;;;;;;;22.14;51.29;102033.81;4130702;28;19937;-66
2023/06/23 04:35:59;;;;;;;;;;;;;;;22.13;51.02;102026.75;4129554;28;20008;-65
2023/06/23 04:38:08;;;;;;;;;;;;;;;22.13;51.18;102034.81;4131569;28;20012;-65
2023/06/23 04:40:24;;;;;;;;;;;;;;;22.12;51.09;102033.94;4131326;28;19932;-65
2023/06/23 04:42:29;;;;;;;;;;;;;;;22.13;51.30;102030.28;4131382;28;19926;-65
2023/06/23 04:44:32;;;;;;;;;;;;;;;22.12;51.33;102038.44;4130273;28;19956;-64
2023/06/23 04:46:37;;;;;;;;;;;;;;;22.12;51.10;102041.97;4131394;28;19979;-64
2023/06/23 04:48:47;;;;;;;;;;;;;;;22.12;51.15;102047.31;4131313;28;19930;-64
2023/06/23 04:50:49;;;;;;;;;;;;;;;22.11;50.92;102048.28;4131439;28;20403;-64
2023/06/23 04:52:53;;;;;;;;;;;;;;;22.11;51.22;102050.94;4131322;28;19933;-65
2023/06/23 04:54:58;;;;;;;;;;;;;;;22.11;51.16;102059.00;4130324;28;19930;-64
2023/06/23 04:57:02;;;;;;;;;;;;;;;22.11;51.12;102067.03;4131340;28;20024;-64
2023/06/23 04:59:05;;;;;;;;;;;;;;;22.11;51.31;102060.81;4131282;28;20310;-64
2023/06/23 05:01:09;;;;;;;;;;;;;;;22.09;51.14;102057.38;4131306;28;19952;-64
2023/06/23 05:03:11;;;;;;;;;;;;;;;22.11;51.42;102058.16;4130381;28;19930;-64
2023/06/23 05:05:18;;;;;;;;;;;;;;;22.10;51.42;102061.78;4131063;28;20551;-64
2023/06/23 05:07:20;;;;;;;;;;;;;;;22.09;51.10;102058.25;4131334;28;19925;-63
2023/06/23 05:09:22;;;;;;;;;;;;;;;22.10;51.17;102057.31;4131058;28;19933;-64
2023/06/23 05:11:24;;;;;;;;;;;;;;;22.09;51.14;102058.25;4131185;28;20368;-64
2023/06/23 05:13:28;;;;;;;;;;;;;;;22.08;51.16;102061.88;4130544;28;19929;-64
2023/06/23 05:15:29;;;;;;;;;;;;;;;22.08;51.06;102061.00;4131096;28;19926;-64
2023/06/23 05:17:33;;;;;;;;;;;;;;;22.09;51.43;102068.97;4131083;28;19969;-64
2023/06/23 05:19:36;;;;;;;;;;;;;;;22.09;51.46;102070.78;4130763;28;19926;-64
2023/06/23 05:21:40;;;;;;;;;;;;;;;22.08;51.20;102069.91;4131207;28;19926;-65
2023/06/23 05:23:43;;;;;;;;;;;;;;;22.09;51.13;102076.13;4130062;28;20302;-64
2023/06/23 05:25:56;;;;;;;;;;;;;;;22.08;51.52;102072.59;4131007;28;19988;-63
2023/06/23 05:28:00;;;;;;;;;;;;;;;22.08;51.49;102079.75;4131060;28;19934;-62
2023/06/23 05:30:05;;;;;;;;;;;;;;;22.07;51.20;102095.00;4130990;28;19926;-64
2023/06/23 05:32:11;;;;;;;;;;;;;;;22.07;51.24;102089.63;4130190;28;19932;-64
2023/06/23 05:34:15;;;;;;;;;;;;;;;22.07;51.46;102089.63;4130148;28;19930;-63
2023/06/23 05:36:20;;;;;;;;;;;;;;;22.07;51.34;102081.59;4131184;28;19961;-64
2023/06/23 05:38:23;;;;;;;;;;;;;;;22.07;51.06;102083.44;4131002;28;19930;-64
2023/06/23 05:40:25;;;;;;;;;;;;;;;22.08;51.11;102082.44;4131011;28;19957;-62
2023/06/23 05:42:29;;;;;;;;;;;;;;;22.06;51.14;102082.53;4131073;28;19972;-63
2023/06/23 05:44:31;;;;;;;;;;;;;;;22.06;51.48;102084.38;4129932;28;19926;-63
2023/06/23 05:46:35;;;;;;;;;;;;;;;22.06;51.15;102085.22;4131882;28;19930;-63
2023/06/23 05:48:46;;;;;;;;;;;;;;;22.06;51.08;102085.22;4133607;28;20450;-63
2023/06/23 05:50:49;;;;;;;;;;;;;;;22.07;51.26;102081.59;4133863;28;20252;-62
2023/06/23 05:52:56;;;;;;;;;;;;;;;22.05;51.45;102083.50;4134042;28;20369;-63
2023/06/23 05:55:00;;;;;;;;;;;;;;;22.05;51.06;102083.50;4132904;28;19937;-64
2023/06/23 05:57:03;;;;;;;;;;;;;;;22.06;51.01;102084.38;4133961;28;19929;-63
2023/06/23 05:59:06;;;;;;;;;;;;;;;22.06;51.03;102089.72;4133965;28;19926;-62
2023/06/23 06:01:10;;;;;;;;;;;;;;;22.05;51.10;102090.69;4133772;28;20497;-63
2023/06/23 06:03:14;;;;;;;;;;;;;;;22.04;51.15;102088.97;4133714;28;19932;-64
2023/06/23 06:05:17;;;;;;;;;;;;;;;22.05;51.33;102083.50;4133403;28;20284;-62
2023/06/23 06:07:20;;;;;;;;;;;;;;;22.06;51.08;102089.72;4133773;28;20466;-64
2023/06/23 06:09:22;;;;;;;;;;;;;;;22.05;51.09;102096.03;4133537;28;19926;-64
2023/06/23 06:11:25;;;;;;;;;;;;;;;22.05;51.14;102085.31;4133607;28;19961;-63
2023/06/23 06:13:29;;;;;;;;;;;;;;;22.04;51.10;102100.53;4132944;28;19957;-63
2023/06/23 06:15:32;;;;;;;;;;;;;;;22.04;51.26;102105.88;4133361;28;19942;-65
2023/06/23 06:17:35;;;;;;;;;;;;;;;22.04;51.14;102097.00;4133033;28;19965;-64
2023/06/23 06:19:39;;;;;;;;;;;;;;;22.04;51.13;102099.69;4133439;28;20287;-63
2023/06/23 06:21:41;;;;;;;;;;;;;;;22.03;51.09;102093.47;4133391;28;19933;-63
2023/06/23 06:23:43;;;;;;;;;;;;;;;22.04;51.02;102102.34;4132697;28;19969;-63
2023/06/23 06:25:49;;;;;;;;;;;;;;;22.05;51.06;102102.25;4133199;28;19952;-63
2023/06/23 06:27:52;;;;;;;;;;;;;;;22.05;51.07;102109.44;4133424;28;19933;-63
2023/06/23 06:29:55;;;;;;;;;;;;;;;22.04;51.07;102103.19;4133285;28;20333;-63
2023/06/23 06:31:57;;;;;;;;;;;;;;;22.04;51.23;102105.03;4132883;28;19941;-62
2023/06/23 06:34:00;;;;;;;;;;;;;;;22.05;51.22;102101.41;4132429;28;20357;-63
2023/06/23 06:36:04;;;;;;;;;;;;;;;22.05;50.95;102106.75;4133059;28;19925;-64
2023/06/23 06:38:06;;;;;;;;;;;;;;;22.05;50.95;102102.25;4133064;28;20453;-63
2023/06/23 06:40:10;;;;;;;;;;;;;;;22.05;50.91;102104.09;4132958;28;19926;-64
2023/06/23 06:42:12;;;;;;;;;;;;;;;22.05;50.99;102102.25;4133060;28;19949;-63
2023/06/23 06:44:13;;;;;;;;;;;;;;;22.05;51.08;102106.75;4132135;28;19926;-63
2023/06/23 06:46:15;;;;;;;;;;;;;;;22.07;50.87;102104.84;4132447;28;19926;-64
2023/06/23 06:48:19;;;;;;;;;;;;;;;22.06;50.99;102103.97;4132938;28;19974;-65
2023/06/23 06:50:22;;;;;;;;;;;;;;;22.07;50.94;102099.50;4133025;28;20021;-64
2023/06/23 06:52:25;;;;;;;;;;;;;;;22.07;50.98;102097.66;4127526;28;19932;-64
2023/06/23 06:54:45;;;;;;;;;;;;;;;22.08;51.19;102107.44;4129159;28;19977;-64
2023/06/23 06:56:46;;;;;;;;;;;;;;;22.09;51.96;102109.16;4142107;28;19957;-65
2023/06/23 06:58:48;;;;;;;;;;;;;;;22.10;51.35;102104.66;4143883;28;19926;-64
2023/06/23 07:00:50;;;;;;;;;;;;;;;22.10;51.79;102102.84;4127223;28;19957;-64
2023/06/23 07:02:53;;;;;;;;;;;;;;;22.12;52.10;102108.94;4116368;28;19937;-64
2023/06/23 07:04:55;;;;;;;;;;;;;;;22.13;52.18;102110.69;4121662;28;20413;-64
2023/06/23 07:06:57;;;;;;;;;;;;;;;22.15;51.92;102110.56;4122095;28;19926;-65
2023/06/23 07:08:58;;;;;;;;;;;;;;;22.16;51.89;102102.47;4117287;28;20260;-64
2023/06/23 07:11:00;;;;;;;;;;;;;;;22.18;52.05;102097.00;4131250;28;19926;-64
2023/06/23 07:13:01;;;;;;;;;;;;;;;22.23;52.12;102096.72;4132337;28;20025;-64
2023/06/23 07:15:03;;;;;;;;;;;;;;;22.23;52.19;102089.53;4126164;28;19996;-64
2023/06/23 07:17:05;;;;;;;;;;;;;;;22.26;52.10;102088.47;4125380;28;20016;-64
2023/06/23 07:19:06;;;;;;;;;;;;;;;22.28;51.83;102083.88;4132490;28;19926;-64
2023/06/23 07:21:10;;;;;;;;;;;;;;;22.29;51.64;102086.44;4120249;28;20008;-64
2023/06/23 07:23:11;;;;;;;;;;;;;;;22.31;51.61;102081.00;4116397;28;19964;-64
2023/06/23 07:25:13;;;;;;;;;;;;;;;22.32;51.79;102083.59;4117698;28;20013;-64
2023/06/23 07:27:16;;;;;;;;;;;;;;;22.33;51.46;102081.75;4124369;28;19981;-64
2023/06/23 07:29:17;;;;;;;;;;;;;;;22.35;51.53;102082.53;4115711;28;19930;-64
2023/06/23 07:31:19;;;;;;;;;;;;;;;22.36;51.44;102084.25;4126780;28;19929;-64
2023/06/23 07:33:20;;;;;;;;;;;;;;;22.37;51.34;102087.78;4117282;28;19926;-64
2023/06/23 07:35:22;;;;;;;;;;;;;;;22.37;51.47;102085.97;4116649;28;19926;-64
2023/06/23 07:37:23;;;;;;;;;;;;;;;22.38;51.36;102087.69;4126290;28;19927;-64
2023/06/23 07:39:25;;;;;;;;;;;;;;;22.40;51.32;102085.78;4116104;28;20303;-64
2023/06/23 07:41:27;;;;;;;;;;;;;;;22.41;51.28;102095.56;4123709;28;19926;-63
2023/06/23 07:43:28;;;;;;;;;;;;;;;22.43;51.11;102095.44;4131459;28;19933;-64
2023/06/23 07:45:30;;;;;;;;;;;;;;;22.43;51.43;102100.81;4129676;28;19933;-64
2023/06/23 07:47:31;;;;;;;;;;;;;;;22.45;51.38;102104.28;4121061;28;19929;-64
2023/06/23 07:49:33;;;;;;;;;;;;;;;22.45;51.15;102098.91;4131621;28;19996;-63
2023/06/23 07:51:34;;;;;;;;;;;;;;;22.45;51.01;102089.03;4127759;28;19962;-63
2023/06/23 07:53:36;;;;;;;;;;;;;;;22.46;51.06;102103.31;4119781;28;19926;-64
2023/06/23 07:55:38;;;;;;;;;;;;;;;22.47;51.07;102105.03;4116750;28;19926;-64
2023/06/23 07:57:39;;;;;;;;;;;;;;;22.46;51.31;102106.84;4125572;28;19929;-64
2023/06/23 07:59:41;;;;;;;;;;;;;;;22.47;51.02;102105.03;4115590;28;19978;-64
2023/06/23 08:01:42;;;;;;;;;;;;;;;22.46;51.17;102103.31;4140062;28;19930;-64
2023/06/23 08:03:47;;;;;;;;;;;;;;;22.48;51.06;102114.81;4121036;28;19969;-63
2023/06/23 08:05:49;;;;;;;;;;;;;;;22.49;51.19;102121.88;4115926;28;19930;-63
2023/06/23 08:07:50;;;;;;;;;;;;;;;22.50;51.00;102110.19;4126675;28;19926;-63
2023/06/23 08:09:52;;;;;;;;;;;;;;;22.50;50.95;102107.50;4114980;28;19926;-63
2023/06/23 08:11:53;;;;;;;;;;;;;;;22.52;51.12;102115.44;4118261;28;19948;-63
2023/06/23 08:13:55;;;;;;;;;;;;;;;22.52;51.24;102110.97;4121501;28;19969;-63
2023/06/23 08:15:57;;;;;;;;;;;;;;;22.53;50.99;102123.41;4115448;28;20380;-63
2023/06/23 08:17:58;;;;;;;;;;;;;;;22.54;51.04;102125.13;4127311;28;19925;-63
2023/06/23 08:20:00;;;;;;;;;;;;;;;22.54;50.93;102129.63;4115746;28;19930;-63
2023/06/23 08:22:03;;;;;;;;;;;;;;;22.56;50.68;102127.72;4116524;28;19961;-63
2023/06/23 08:24:05;;;;;;;;;;;;;;;22.55;51.00;102140.25;4123648;28;20009;-63
2023/06/23 08:26:06;;;;;;;;;;;;;;;22.56;50.71;102136.59;4115335;28;20037;-63
2023/06/23 08:28:08;;;;;;;;;;;;;;;22.57;50.61;102127.59;4125287;28;19926;-62
2023/06/23 08:30:10;;;;;;;;;;;;;;;22.58;50.68;102134.69;4116976;28;19930;-63
2023/06/23 08:32:13;;;;;;;;;;;;;;;22.58;50.31;102132.00;4115608;28;19938;-64
2023/06/23 08:34:14;;;;;;;;;;;;;;;22.59;50.39;102140.91;4119799;28;20455;-63
2023/06/23 08:36:16;;;;;;;;;;;;;;;22.60;50.40;102138.16;4131425;28;19925;-63
2023/06/23 08:38:18;;;;;;;;;;;;;;;22.60;50.36;102142.63;4121217;28;19926;-63
2023/06/23 08:40:19;;;;;;;;;;;;;;;22.60;50.47;102143.50;4128049;28;19937;-64
2023/06/23 08:42:21;;;;;;;;;;;;;;;22.61;50.62;102147.03;4129573;28;19969;-65
2023/06/23 08:44:24;;;;;;;;;;;;;;;22.62;50.36;102143.41;4133994;28;19926;-64
2023/06/23 08:46:29;;;;;;;;;;;;;;;22.64;50.46;102152.22;4131167;28;19925;-64
2023/06/23 08:48:31;;;;;;;;;;;;;;;22.63;50.26;102147.81;4128089;28;20287;-64
2023/06/23 08:50:34;;;;;;;;;;;;;;;22.64;50.25;102152.22;4130783;28;20306;-64
2023/06/23 08:52:39;;;;;;;;;;;;;;;22.64;50.55;102153.06;4129644;28;19949;-64
2023/06/23 08:54:44;;;;;;;;;;;;;;;22.65;50.28;102159.31;4119156;28;19925;-65
2023/06/23 08:56:46;;;;;;;;;;;;;;;22.65;50.39;102152.13;4131052;28;20016;-64
2023/06/23 08:58:48;;;;;;;;;;;;;;;22.67;50.71;102143.97;4123776;28;19957;-65
2023/06/23 09:00:51;;;;;;;;;;;;;;;22.68;50.74;102152.88;4126444;28;19980;-65
2023/06/23 09:02:53;;;;;;;;;;;;;;;22.69;50.48;102147.41;4129817;28;19972;-62
2023/06/23 09:04:54;;;;;;;;;;;;;;;22.70;50.78;102154.50;4118225;28;20439;-63
2023/06/23 09:06:56;;;;;;;;;;;;;;;22.72;50.41;102157.06;4130944;28;19934;-65
2023/06/23 09:08:58;;;;;;;;;;;;;;;22.74;50.78;102155.16;4125263;28;19930;-64
2023/06/23 09:11:00;;;;;;;;;;;;;;;22.74;50.35;102156.03;4124609;28;20028;-64
2023/06/23 09:13:07;;;;;;;;;;;;;;;22.76;50.41;102154.09;4130513;28;20423;-64
2023/06/23 09:15:10;;;;;;;;;;;;;;;22.79;50.56;102161.09;4124744;28;19932;-63
2023/06/23 09:17:13;;;;;;;;;;;;;;;22.80;50.50;102157.44;4115050;28;20363;-64
2023/06/23 09:19:15;;;;;;;;;;;;;;;22.80;50.41;102160.97;4119970;28;19961;-65
2023/06/23 09:21:20;;;;;;;;;;;;;;;22.82;50.62;102163.59;4124283;28;19927;-64
2023/06/23 09:23:22;;;;;;;;;;;;;;;22.83;50.60;102167.97;4133839;28;19932;-64
2023/06/23 09:25:37;;;;;;;;;;;;;;;22.85;50.60;102157.16;4142805;28;19926;-64
2023/06/23 09:27:40;;;;;;;;;;;;;;;22.84;50.46;102152.75;4134211;28;19988;-63
2023/06/23 09:29:43;;;;;;;;;;;;;;;22.86;50.57;102156.19;4127613;28;19926;-61
2023/06/23 09:31:45;;;;;;;;;;;;;;;22.88;50.52;102156.94;4128440;28;19926;-62
2023/06/23 09:33:48;;;;;;;;;;;;;;;22.89;50.59;102156.88;4132884;28;20458;-62
2023/06/23 09:35:53;;;;;;;;;;;;;;;22.91;50.43;102151.41;4126646;28;19969;-62
2023/06/23 09:37:55;;;;;;;;;;;;;;;22.91;50.32;102157.59;4117305;28;20072;-63
2023/06/23 09:39:57;;;;;;;;;;;;;;;22.92;50.17;102162.00;4122699;28;20289;-63
2023/06/23 09:41:59;;;;;;;;;;;;;;;22.94;50.45;102159.22;4124367;28;19926;-62
2023/06/23 09:44:10;;;;;;;;;;;;;;;22.94;50.36;102153.84;4116985;28;20285;-63
2023/06/23 09:46:12;;;;;;;;;;;;;;;22.95;50.34;102140.38;4128093;28;19966;-62
2023/06/23 09:48:15;;;;;;;;;;;;;;;22.94;50.01;102141.31;4119510;28;19926;-62
2023/06/23 09:50:20;;;;;;;;;;;;;;;22.95;49.88;102143.06;4129395;28;19972;-62
2023/06/23 09:52:23;;;;;;;;;;;;;;;22.96;50.38;102141.22;4124157;28;19932;-62
2023/06/23 09:54:36;;;;;;;;;;;;;;;22.96;50.01;102146.56;4116379;28;20422;-63
2023/06/23 09:56:38;;;;;;;;;;;;;;;22.96;50.00;102142.06;4127981;28;19926;-62
2023/06/23 09:58:41;;;;;;;;;;;;;;;22.97;49.84;102151.84;4117482;28;19926;-62
2023/06/23 10:00:43;;;;;;;;;;;;;;;22.98;49.88;102142.81;4123463;28;20117;-62
2023/06/23 10:02:44;;;;;;;;;;;;;;;22.98;49.68;102141.97;4123713;28;20383;-61
2023/06/23 10:04:48;;;;;;;;;;;;;;;22.98;49.64;102142.81;4117126;28;20347;-63
2023/06/23 10:06:52;;;;;;;;;;;;;;;22.99;49.70;102141.03;4128331;28;20406;-62
2023/06/23 10:08:58;;;;;;;;;;;;;;;23.00;49.70;102134.66;4117165;28;19933;-64
2023/06/23 10:10:59;;;;;;;;;;;;;;;23.01;49.92;102136.41;4122015;28;19948;-62
2023/06/23 10:13:01;;;;;;;;;;;;;;;23.02;49.78;102134.59;4124161;28;20361;-62
2023/06/23 10:15:03;;;;;;;;;;;;;;;23.02;49.56;102132.75;4116095;28;19973;-63
2023/06/23 10:17:05;;;;;;;;;;;;;;;23.05;49.16;102137.06;4121346;28;19958;-62
2023/06/23 10:19:07;;;;;;;;;;;;;;;23.06;49.35;102136.97;4133594;28;19961;-63
2023/06/23 10:21:09;;;;;;;;;;;;;;;23.06;49.67;102131.63;4129115;28;19961;-63
2023/06/23 10:23:12;;;;;;;;;;;;;;;23.07;49.50;102135.13;4125067;28;19930;-63
2023/06/23 10:25:14;;;;;;;;;;;;;;;23.08;48.70;102134.19;4131140;28;20025;-62
2023/06/23 10:27:19;;;;;;;;;;;;;;;23.08;49.40;102129.66;4120687;28;19930;-63
2023/06/23 10:29:21;;;;;;;;;;;;;;;23.09;49.42;102128.72;4133235;28;19956;-63
2023/06/23 10:31:23;;;;;;;;;;;;;;;23.10;49.20;102130.44;4128472;28;20363;-62
2023/06/23 10:33:28;;;;;;;;;;;;;;;23.11;49.60;102125.91;4123856;28;19925;-63